Pojoaque, New Mexico
Current Conditions -  °F | °C
As of 6:53 AM on Monday 20 Oct 2014 (Local Time) from KSAF Reporting Station
Clear Clear  
Wind Chill: 38°   Ceiling: Unl
Heat Index: 43°   Visibility: 10mi
Dew Point: 38°   Wind: 8mph
Humidity: 82%   Direction: 20°NNE
Pressure: 30.22"   Gusts: NA
Location:  35.7017°N, 105.921°W
Report Text: KSAF 201253Z 02007KT 10SM CLR 06/03 A3022 RMK AO2 SLP179 T00610033
Loading
Personal Weather Stations






























Interactive Weather Map New forecast layout! Learn more

10-Day Weather Forecast

Advertisements
Track Severe Weather on mobile